sensor_id;sensor_type;location;lat;lon;timestamp;pressure;altitude;pressure_sealevel;temperature;humidity
74075;BME280;62428;51.412;5.432;2023-07-31T00:01:14;100971.13;;;16.21;100.00
74075;BME280;62428;51.412;5.432;2023-07-31T00:03:40;100969.25;;;16.21;100.00
74075;BME280;62428;51.412;5.432;2023-07-31T00:06:05;100964.13;;;16.20;100.00
74075;BME280;62428;51.412;5.432;2023-07-31T00:08:30;100962.69;;;16.22;100.00
74075;BME280;62428;51.412;5.432;2023-07-31T00:10:56;100961.91;;;16.22;100.00
74075;BME280;62428;51.412;5.432;2023-07-31T00:13:21;100964.94;;;16.20;100.00
74075;BME280;62428;51.412;5.432;2023-07-31T00:15:47;100963.34;;;16.19;100.00
74075;BME280;62428;51.412;5.432;2023-07-31T00:18:12;100967.97;;;16.19;100.00
74075;BME280;62428;51.412;5.432;2023-07-31T00:20:38;100971.50;;;16.19;100.00
74075;BME280;62428;51.412;5.432;2023-07-31T00:23:03;100960.97;;;16.18;100.00
74075;BME280;62428;51.412;5.432;2023-07-31T00:25:29;100957.44;;;16.17;100.00
74075;BME280;62428;51.412;5.432;2023-07-31T00:27:54;100955.88;;;16.16;100.00
74075;BME280;62428;51.412;5.432;2023-07-31T00:30:19;100953.16;;;16.16;100.00
74075;BME280;62428;51.412;5.432;2023-07-31T00:32:45;100954.25;;;16.15;100.00
74075;BME280;62428;51.412;5.432;2023-07-31T00:35:10;100954.25;;;16.15;100.00
74075;BME280;62428;51.412;5.432;2023-07-31T00:37:35;100954.25;;;16.15;100.00
74075;BME280;62428;51.412;5.432;2023-07-31T00:40:01;100953.47;;;16.14;100.00
74075;BME280;62428;51.412;5.432;2023-07-31T00:42:28;100952.69;;;16.14;100.00
74075;BME280;62428;51.412;5.432;2023-07-31T00:44:53;100946.13;;;16.15;100.00
74075;BME280;62428;51.412;5.432;2023-07-31T00:47:19;100942.19;;;16.12;100.00
74075;BME280;62428;51.412;5.432;2023-07-31T00:49:45;100942.19;;;16.12;100.00
74075;BME280;62428;51.412;5.432;2023-07-31T00:52:10;100949.53;;;16.12;100.00
74075;BME280;62428;51.412;5.432;2023-07-31T00:54:36;100948.69;;;16.11;100.00
74075;BME280;62428;51.412;5.432;2023-07-31T00:57:02;100939.78;;;16.11;100.00
74075;BME280;62428;51.412;5.432;2023-07-31T00:59:27;100942.50;;;16.11;100.00
74075;BME280;62428;51.412;5.432;2023-07-31T01:01:53;100935.16;;;16.11;100.00
74075;BME280;62428;51.412;5.432;2023-07-31T01:04:18;100947.13;;;16.10;100.00
74075;BME280;62428;51.412;5.432;2023-07-31T01:07:00;100939.00;;;16.10;100.00
74075;BME280;62428;51.412;5.432;2023-07-31T01:12:09;100936.59;;;16.09;100.00
74075;BME280;62428;51.412;5.432;2023-07-31T01:14:37;100931.97;;;16.09;100.00
74075;BME280;62428;51.412;5.432;2023-07-31T01:17:03;100932.78;;;16.10;100.00
74075;BME280;62428;51.412;5.432;2023-07-31T01:19:28;100936.94;;;16.07;100.00
74075;BME280;62428;51.412;5.432;2023-07-31T01:25:05;100931.19;;;16.09;100.00
74075;BME280;62428;51.412;5.432;2023-07-31T01:27:42;100944.28;;;16.07;100.00
74075;BME280;62428;51.412;5.432;2023-07-31T01:30:16;100928.66;;;16.04;100.00
74075;BME280;62428;51.412;5.432;2023-07-31T01:32:43;100939.50;;;16.04;100.00
74075;BME280;62428;51.412;5.432;2023-07-31T01:35:09;100932.50;;;16.03;100.00
74075;BME280;62428;51.412;5.432;2023-07-31T01:37:35;100936.31;;;16.02;100.00
74075;BME280;62428;51.412;5.432;2023-07-31T01:40:00;100941.75;;;16.02;100.00
74075;BME280;62428;51.412;5.432;2023-07-31T01:42:25;100930.13;;;16.01;100.00
74075;BME280;62428;51.412;5.432;2023-07-31T01:44:51;100936.66;;;16.00;100.00
74075;BME280;62428;51.412;5.432;2023-07-31T01:47:16;100933.94;;;16.00;100.00
74075;BME280;62428;51.412;5.432;2023-07-31T01:49:42;100930.44;;;16.00;100.00
74075;BME280;62428;51.412;5.432;2023-07-31T01:52:07;100931.22;;;16.00;100.00
74075;BME280;62428;51.412;5.432;2023-07-31T01:54:32;100928.84;;;15.99;100.00
74075;BME280;62428;51.412;5.432;2023-07-31T01:56:58;100930.75;;;15.98;100.00
74075;BME280;62428;51.412;5.432;2023-07-31T01:59:25;100917.22;;;15.98;100.00
74075;BME280;62428;51.412;5.432;2023-07-31T02:01:50;100916.75;;;15.96;100.00
74075;BME280;62428;51.412;5.432;2023-07-31T02:04:16;100915.97;;;15.95;100.00
74075;BME280;62428;51.412;5.432;2023-07-31T02:06:43;100914.03;;;15.96;100.00
74075;BME280;62428;51.412;5.432;2023-07-31T02:09:08;100909.72;;;15.95;100.00
74075;BME280;62428;51.412;5.432;2023-07-31T02:11:34;100901.59;;;15.95;100.00
74075;BME280;62428;51.412;5.432;2023-07-31T02:13:59;100901.59;;;15.95;100.00
74075;BME280;62428;51.412;5.432;2023-07-31T02:16:24;100888.06;;;15.95;100.00
74075;BME280;62428;51.412;5.432;2023-07-31T02:18:50;100889.19;;;15.94;100.00
74075;BME280;62428;51.412;5.432;2023-07-31T02:21:15;100891.13;;;15.93;100.00
74075;BME280;62428;51.412;5.432;2023-07-31T02:23:40;100892.22;;;15.92;100.00
74075;BME280;62428;51.412;5.432;2023-07-31T02:26:06;100877.56;;;15.93;100.00
74075;BME280;62428;51.412;5.432;2023-07-31T02:28:31;100881.38;;;15.92;100.00
74075;BME280;62428;51.412;5.432;2023-07-31T02:30:56;100882.16;;;15.93;100.00
74075;BME280;62428;51.412;5.432;2023-07-31T02:33:22;100883.00;;;15.93;100.00
74075;BME280;62428;51.412;5.432;2023-07-31T02:35:47;100882.50;;;15.91;100.00
74075;BME280;62428;51.412;5.432;2023-07-31T02:38:12;100870.88;;;15.91;100.00
74075;BME280;62428;51.412;5.432;2023-07-31T02:40:39;100874.72;;;15.90;100.00
74075;BME280;62428;51.412;5.432;2023-07-31T02:43:06;100870.88;;;15.91;100.00
74075;BME280;62428;51.412;5.432;2023-07-31T02:45:32;100868.16;;;15.91;100.00
74075;BME280;62428;51.412;5.432;2023-07-31T02:47:57;100868.94;;;15.91;100.00
74075;BME280;62428;51.412;5.432;2023-07-31T02:50:23;100870.88;;;15.91;100.00
74075;BME280;62428;51.412;5.432;2023-07-31T02:52:48;100864.34;;;15.92;100.00
74075;BME280;62428;51.412;5.432;2023-07-31T02:55:13;100863.53;;;15.91;100.00
74075;BME280;62428;51.412;5.432;2023-07-31T02:57:39;100867.06;;;15.92;100.00
74075;BME280;62428;51.412;5.432;2023-07-31T03:00:05;100861.63;;;15.92;100.00
74075;BME280;62428;51.412;5.432;2023-07-31T03:02:31;100851.59;;;15.92;100.00
74075;BME280;62428;51.412;5.432;2023-07-31T03:04:57;100860.50;;;15.93;100.00
74075;BME280;62428;51.412;5.432;2023-07-31T03:07:22;100853.19;;;15.93;100.00
74075;BME280;62428;51.412;5.432;2023-07-31T03:09:47;100854.75;;;15.94;100.00
74075;BME280;62428;51.412;5.432;2023-07-31T03:12:13;100859.84;;;15.96;100.00
74075;BME280;62428;51.412;5.432;2023-07-31T03:14:38;100855.22;;;15.97;100.00
74075;BME280;62428;51.412;5.432;2023-07-31T03:17:04;100860.31;;;15.98;100.00
74075;BME280;62428;51.412;5.432;2023-07-31T03:19:32;100852.19;;;15.98;100.00
74075;BME280;62428;51.412;5.432;2023-07-31T03:21:58;100852.19;;;15.98;100.00
74075;BME280;62428;51.412;5.432;2023-07-31T03:24:24;100855.34;;;16.00;100.00
74075;BME280;62428;51.412;5.432;2023-07-31T03:26:50;100853.44;;;16.01;100.00
74075;BME280;62428;51.412;5.432;2023-07-31T03:29:15;100853.09;;;16.02;100.00
74075;BME280;62428;51.412;5.432;2023-07-31T03:31:40;100848.50;;;16.03;100.00
74075;BME280;62428;51.412;5.432;2023-07-31T03:34:06;100850.06;;;16.04;100.00
74075;BME280;62428;51.412;5.432;2023-07-31T03:36:31;100837.31;;;16.04;100.00
74075;BME280;62428;51.412;5.432;2023-07-31T03:38:57;100842.09;;;16.07;100.00
74075;BME280;62428;51.412;5.432;2023-07-31T03:41:22;100833.63;;;16.09;100.00
74075;BME280;62428;51.412;5.432;2023-07-31T03:43:50;100830.94;;;16.09;100.00
74075;BME280;62428;51.412;5.432;2023-07-31T03:46:17;100829.00;;;16.09;100.00
74075;BME280;62428;51.412;5.432;2023-07-31T03:48:42;100827.09;;;16.10;100.00
74075;BME280;62428;51.412;5.432;2023-07-31T03:51:08;100825.66;;;16.12;100.00
74075;BME280;62428;51.412;5.432;2023-07-31T03:53:33;100811.31;;;16.12;100.00
74075;BME280;62428;51.412;5.432;2023-07-31T03:55:59;100824.50;;;16.13;100.00
74075;BME280;62428;51.412;5.432;2023-07-31T03:58:24;100812.56;;;16.14;100.00
74075;BME280;62428;51.412;5.432;2023-07-31T04:00:49;100807.13;;;16.14;100.00
74075;BME280;62428;51.412;5.432;2023-07-31T04:03:15;100814.16;;;16.16;100.00
74075;BME280;62428;51.412;5.432;2023-07-31T04:05:40;100809.19;;;16.18;100.00
74075;BME280;62428;51.412;5.432;2023-07-31T04:08:05;100803.78;;;16.18;100.00
74075;BME280;62428;51.412;5.432;2023-07-31T04:10:31;100802.31;;;16.20;100.00
74075;BME280;62428;51.412;5.432;2023-07-31T04:12:59;100793.38;;;16.20;100.00
74075;BME280;62428;51.412;5.432;2023-07-31T04:15:25;100788.75;;;16.20;100.00
74075;BME280;62428;51.412;5.432;2023-07-31T04:17:50;100788.44;;;16.22;100.00
74075;BME280;62428;51.412;5.432;2023-07-31T04:20:16;100781.09;;;16.22;100.00
74075;BME280;62428;51.412;5.432;2023-07-31T04:22:42;100784.59;;;16.23;100.00
74075;BME280;62428;51.412;5.432;2023-07-31T04:25:07;100782.34;;;16.25;100.00
74075;BME280;62428;51.412;5.432;2023-07-31T04:27:33;100786.63;;;16.26;100.00
74075;BME280;62428;51.412;5.432;2023-07-31T04:29:58;100781.22;;;16.26;100.00
74075;BME280;62428;51.412;5.432;2023-07-31T04:32:24;100775.47;;;16.27;100.00
74075;BME280;62428;51.412;5.432;2023-07-31T04:34:49;100777.84;;;16.29;100.00
74075;BME280;62428;51.412;5.432;2023-07-31T04:37:14;100768.56;;;16.30;100.00
74075;BME280;62428;51.412;5.432;2023-07-31T04:39:40;100767.78;;;16.29;100.00
74075;BME280;62428;51.412;5.432;2023-07-31T04:42:05;100765.88;;;16.30;100.00
74075;BME280;62428;51.412;5.432;2023-07-31T04:44:30;100758.56;;;16.30;100.00
74075;BME280;62428;51.412;5.432;2023-07-31T04:46:56;100759.34;;;16.31;100.00
74075;BME280;62428;51.412;5.432;2023-07-31T04:49:21;100759.34;;;16.31;100.00
74075;BME280;62428;51.412;5.432;2023-07-31T04:51:47;100760.13;;;16.31;100.00
74075;BME280;62428;51.412;5.432;2023-07-31T04:54:12;100759.34;;;16.31;100.00
74075;BME280;62428;51.412;5.432;2023-07-31T04:56:40;100759.00;;;16.32;100.00
74075;BME280;62428;51.412;5.432;2023-07-31T04:59:05;100751.66;;;16.33;100.00
74075;BME280;62428;51.412;5.432;2023-07-31T05:01:31;100754.38;;;16.33;100.00
74075;BME280;62428;51.412;5.432;2023-07-31T05:03:56;100752.44;;;16.33;100.00
74075;BME280;62428;51.412;5.432;2023-07-31T05:06:21;100752.44;;;16.33;100.00
74075;BME280;62428;51.412;5.432;2023-07-31T05:08:47;100749.72;;;16.33;100.00
74075;BME280;62428;51.412;5.432;2023-07-31T05:11:12;100753.25;;;16.34;100.00
74075;BME280;62428;51.412;5.432;2023-07-31T05:13:37;100741.13;;;16.31;100.00
74075;BME280;62428;51.412;5.432;2023-07-31T05:16:03;100736.88;;;16.30;100.00
74075;BME280;62428;51.412;5.432;2023-07-31T05:18:29;100739.56;;;16.30;100.00
74075;BME280;62428;51.412;5.432;2023-07-31T05:20:54;100733.34;;;16.30;100.00
74075;BME280;62428;51.412;5.432;2023-07-31T05:23:19;100736.06;;;16.30;100.00
74075;BME280;62428;51.412;5.432;2023-07-31T05:25:45;100741.81;;;16.28;100.00
74075;BME280;62428;51.412;5.432;2023-07-31T05:28:11;100740.56;;;16.26;100.00
74075;BME280;62428;51.412;5.432;2023-07-31T05:30:37;100739.78;;;16.25;100.00
74075;BME280;62428;51.412;5.432;2023-07-31T05:33:02;100737.06;;;16.25;100.00
74075;BME280;62428;51.412;5.432;2023-07-31T05:35:27;100742.03;;;16.23;100.00
74075;BME280;62428;51.412;5.432;2023-07-31T05:37:53;100738.19;;;16.24;100.00
74075;BME280;62428;51.412;5.432;2023-07-31T05:40:18;100727.69;;;16.23;100.00
74075;BME280;62428;51.412;5.432;2023-07-31T05:42:44;100725.75;;;16.23;100.00
74075;BME280;62428;51.412;5.432;2023-07-31T05:45:09;100724.97;;;16.23;100.00
74075;BME280;62428;51.412;5.432;2023-07-31T05:47:35;100724.50;;;16.21;100.00
74075;BME280;62428;51.412;5.432;2023-07-31T05:50:00;100738.03;;;16.21;100.00
74075;BME280;62428;51.412;5.432;2023-07-31T05:52:26;100732.63;;;16.21;100.00
74075;BME280;62428;51.412;5.432;2023-07-31T05:54:51;100728.34;;;16.20;100.00
74075;BME280;62428;51.412;5.432;2023-07-31T05:57:17;100721.66;;;16.17;100.00
74075;BME280;62428;51.412;5.432;2023-07-31T05:59:42;100717.69;;;16.14;100.00
74075;BME280;62428;51.412;5.432;2023-07-31T06:02:08;100713.75;;;16.12;100.00
74075;BME280;62428;51.412;5.432;2023-07-31T06:04:33;100716.78;;;16.10;100.00
74075;BME280;62428;51.412;5.432;2023-07-31T06:06:59;100709.31;;;16.07;100.00
74075;BME280;62428;51.412;5.432;2023-07-31T06:09:24;100709.63;;;16.06;100.00
74075;BME280;62428;51.412;5.432;2023-07-31T06:11:51;100702.97;;;16.03;100.00
74075;BME280;62428;51.412;5.432;2023-07-31T06:14:16;100709.50;;;16.02;100.00
74075;BME280;62428;51.412;5.432;2023-07-31T06:16:41;100702.84;;;16.00;100.00
74075;BME280;62428;51.412;5.432;2023-07-31T06:19:07;100702.38;;;15.98;100.00
74075;BME280;62428;51.412;5.432;2023-07-31T06:21:33;100688.03;;;15.97;100.00
74075;BME280;62428;51.412;5.432;2023-07-31T06:23:58;100693.94;;;15.99;100.00
74075;BME280;62428;51.412;5.432;2023-07-31T06:26:24;100698.88;;;15.97;100.00
74075;BME280;62428;51.412;5.432;2023-07-31T06:28:49;100699.69;;;15.98;100.00
74075;BME280;62428;51.412;5.432;2023-07-31T06:31:14;100692.00;;;16.00;100.00
74075;BME280;62428;51.412;5.432;2023-07-31T06:33:40;100699.69;;;15.98;100.00
74075;BME280;62428;51.412;5.432;2023-07-31T06:36:05;100688.38;;;15.95;100.00
74075;BME280;62428;51.412;5.432;2023-07-31T06:38:31;100690.72;;;15.97;100.00
74075;BME280;62428;51.412;5.432;2023-07-31T06:40:57;100688.38;;;15.95;100.00
74075;BME280;62428;51.412;5.432;2023-07-31T06:43:22;100680.25;;;15.95;100.00
74075;BME280;62428;51.412;5.432;2023-07-31T06:45:48;100679.91;;;15.97;100.00
74075;BME280;62428;51.412;5.432;2023-07-31T06:48:16;100674.47;;;15.97;100.00
74075;BME280;62428;51.412;5.432;2023-07-31T06:50:41;100678.47;;;16.00;100.00
74075;BME280;62428;51.412;5.432;2023-07-31T06:53:07;100676.53;;;16.00;100.00
74075;BME280;62428;51.412;5.432;2023-07-31T06:55:32;100685.44;;;16.01;100.00
74075;BME280;62428;51.412;5.432;2023-07-31T06:57:57;100669.53;;;15.99;100.00
74075;BME280;62428;51.412;5.432;2023-07-31T07:00:23;100673.38;;;15.98;100.00
74075;BME280;62428;51.412;5.432;2023-07-31T07:02:49;100676.06;;;15.98;100.00
74075;BME280;62428;51.412;5.432;2023-07-31T07:05:16;100681.50;;;15.98;100.00
74075;BME280;62428;51.412;5.432;2023-07-31T07:07:42;100672.25;;;15.99;100.00
74075;BME280;62428;51.412;5.432;2023-07-31T07:10:08;100673.03;;;16.00;100.00
74075;BME280;62428;51.412;5.432;2023-07-31T07:12:33;100668.06;;;16.02;100.00
74075;BME280;62428;51.412;5.432;2023-07-31T07:14:59;100662.34;;;16.03;100.00
74075;BME280;62428;51.412;5.432;2023-07-31T07:17:26;100672.38;;;16.03;100.00
74075;BME280;62428;51.412;5.432;2023-07-31T07:19:51;100655.66;;;16.01;100.00
74075;BME280;62428;51.412;5.432;2023-07-31T07:22:17;100655.66;;;16.01;100.00
74075;BME280;62428;51.412;5.432;2023-07-31T07:24:43;100664.59;;;16.01;100.00
74075;BME280;62428;51.412;5.432;2023-07-31T07:27:08;100655.00;;;16.04;100.00
74075;BME280;62428;51.412;5.432;2023-07-31T07:29:34;100650.34;;;16.04;100.00
74075;BME280;62428;51.412;5.432;2023-07-31T07:32:00;100648.47;;;16.05;100.00
74075;BME280;62428;51.412;5.432;2023-07-31T07:34:27;100655.44;;;16.06;100.00
74075;BME280;62428;51.412;5.432;2023-07-31T07:36:53;100654.00;;;16.08;100.00
74075;BME280;62428;51.412;5.432;2023-07-31T07:39:18;100657.81;;;16.07;100.00
74075;BME280;62428;51.412;5.432;2023-07-31T07:41:44;100650.47;;;16.08;100.00
74075;BME280;62428;51.412;5.432;2023-07-31T07:44:09;100662.78;;;16.05;100.00
74075;BME280;62428;51.412;5.432;2023-07-31T07:46:35;100660.06;;;16.05;100.00
74075;BME280;62428;51.412;5.432;2023-07-31T07:49:00;100660.88;;;16.06;100.00
74075;BME280;62428;51.412;5.432;2023-07-31T07:51:25;100657.81;;;16.07;100.00
74075;BME280;62428;51.412;5.432;2023-07-31T07:53:51;100654.34;;;16.07;100.00
74075;BME280;62428;51.412;5.432;2023-07-31T07:56:16;100640.78;;;16.07;100.00
74075;BME280;62428;51.412;5.432;2023-07-31T07:58:42;100662.78;;;16.05;100.00
74075;BME280;62428;51.412;5.432;2023-07-31T08:01:07;100648.47;;;16.05;100.00
74075;BME280;62428;51.412;5.432;2023-07-31T08:03:33;100657.38;;;16.05;100.00
74075;BME280;62428;51.412;5.432;2023-07-31T08:05:59;100657.81;;;16.07;100.00
74075;BME280;62428;51.412;5.432;2023-07-31T08:08:25;100653.19;;;16.08;100.00
74075;BME280;62428;51.412;5.432;2023-07-31T08:10:50;100652.41;;;16.07;100.00
74075;BME280;62428;51.412;5.432;2023-07-31T08:13:16;100653.53;;;16.06;100.00
74075;BME280;62428;51.412;5.432;2023-07-31T08:15:41;100652.41;;;16.07;100.00
74075;BME280;62428;51.412;5.432;2023-07-31T08:18:09;100653.19;;;16.08;100.00
74075;BME280;62428;51.412;5.432;2023-07-31T08:20:34;100645.53;;;16.10;100.00
74075;BME280;62428;51.412;5.432;2023-07-31T08:22:59;100655.25;;;16.11;100.00
74075;BME280;62428;51.412;5.432;2023-07-31T08:25:25;100646.31;;;16.10;100.00
74075;BME280;62428;51.412;5.432;2023-07-31T08:27:50;100652.53;;;16.11;100.00
74075;BME280;62428;51.412;5.432;2023-07-31T08:30:18;100652.53;;;16.11;100.00
74075;BME280;62428;51.412;5.432;2023-07-31T08:32:44;100643.63;;;16.10;100.00
74075;BME280;62428;51.412;5.432;2023-07-31T08:35:09;100651.75;;;16.10;100.00
74075;BME280;62428;51.412;5.432;2023-07-31T08:37:35;100652.06;;;16.09;100.00
74075;BME280;62428;51.412;5.432;2023-07-31T08:40:00;100642.34;;;16.08;100.00
74075;BME280;62428;51.412;5.432;2023-07-31T08:42:26;100653.19;;;16.08;100.00
74075;BME280;62428;51.412;5.432;2023-07-31T08:44:52;100635.03;;;16.08;100.00
74075;BME280;62428;51.412;5.432;2023-07-31T08:47:19;100646.66;;;16.09;100.00
74075;BME280;62428;51.412;5.432;2023-07-31T08:49:46;100639.31;;;16.09;100.00
74075;BME280;62428;51.412;5.432;2023-07-31T08:52:12;100639.78;;;16.11;100.00
74075;BME280;62428;51.412;5.432;2023-07-31T08:54:37;100645.31;;;16.15;100.00
74075;BME280;62428;51.412;5.432;2023-07-31T08:57:04;100650.41;;;16.17;100.00
74075;BME280;62428;51.412;5.432;2023-07-31T08:59:31;100636.53;;;16.18;100.00
74075;BME280;62428;51.412;5.432;2023-07-31T09:02:06;100642.72;;;16.19;100.00
74075;BME280;62428;51.412;5.432;2023-07-31T09:04:33;100633.94;;;16.22;100.00
74075;BME280;62428;51.412;5.432;2023-07-31T09:07:01;100634.06;;;16.25;100.00
74075;BME280;62428;51.412;5.432;2023-07-31T09:09:29;100634.50;;;16.27;100.00
74075;BME280;62428;51.412;5.432;2023-07-31T09:11:54;100645.03;;;16.29;100.00
74075;BME280;62428;51.412;5.432;2023-07-31T09:14:21;100637.34;;;16.31;100.00
74075;BME280;62428;51.412;5.432;2023-07-31T09:16:58;100637.16;;;16.36;100.00
74075;BME280;62428;51.412;5.432;2023-07-31T09:19:33;100629.34;;;16.34;100.00
74075;BME280;62428;51.412;5.432;2023-07-31T09:22:00;100630.25;;;16.39;100.00
74075;BME280;62428;51.412;5.432;2023-07-31T09:24:29;100633.41;;;16.41;100.00
74075;BME280;62428;51.412;5.432;2023-07-31T09:26:56;100624.28;;;16.45;100.00
74075;BME280;62428;51.412;5.432;2023-07-31T09:29:22;100632.53;;;16.49;100.00
74075;BME280;62428;51.412;5.432;2023-07-31T09:31:48;100623.75;;;16.52;100.00
74075;BME280;62428;51.412;5.432;2023-07-31T09:34:13;100625.75;;;16.55;100.00
74075;BME280;62428;51.412;5.432;2023-07-31T09:36:43;100616.63;;;16.60;100.00
74075;BME280;62428;51.412;5.432;2023-07-31T09:39:13;100617.19;;;16.65;100.00
74075;BME280;62428;51.412;5.432;2023-07-31T09:41:40;100615.81;;;16.71;100.00
74075;BME280;62428;51.412;5.432;2023-07-31T09:44:06;100619.00;;;16.73;100.00
74075;BME280;62428;51.412;5.432;2023-07-31T09:46:35;100615.63;;;16.77;100.00
74075;BME280;62428;51.412;5.432;2023-07-31T09:49:08;100616.84;;;16.79;100.00
74075;BME280;62428;51.412;5.432;2023-07-31T09:51:35;100617.66;;;16.80;100.00
74075;BME280;62428;51.412;5.432;2023-07-31T09:54:09;100618.09;;;16.82;100.00
74075;BME280;62428;51.412;5.432;2023-07-31T09:56:36;100620.50;;;16.83;100.00
74075;BME280;62428;51.412;5.432;2023-07-31T09:59:03;100612.38;;;16.83;100.00
74075;BME280;62428;51.412;5.432;2023-07-31T10:01:29;100613.94;;;16.84;100.00
74075;BME280;62428;51.412;5.432;2023-07-31T10:03:55;100615.53;;;16.85;100.00
74075;BME280;62428;51.412;5.432;2023-07-31T10:06:22;100608.19;;;16.86;100.00
74075;BME280;62428;51.412;5.432;2023-07-31T10:08:51;100608.63;;;16.88;100.00
74075;BME280;62428;51.412;5.432;2023-07-31T10:11:18;100605.59;;;16.89;100.00
74075;BME280;62428;51.412;5.432;2023-07-31T10:13:44;100608.63;;;16.88;100.00
74075;BME280;62428;51.412;5.432;2023-07-31T10:16:11;100603.19;;;16.88;100.00
74075;BME280;62428;51.412;5.432;2023-07-31T10:18:38;100598.59;;;16.88;100.00
74075;BME280;62428;51.412;5.432;2023-07-31T10:21:05;100603.66;;;16.90;100.00
74075;BME280;62428;51.412;5.432;2023-07-31T10:23:31;100599.81;;;16.91;100.00
74075;BME280;62428;51.412;5.432;2023-07-31T10:25:57;100601.41;;;16.92;100.00
74075;BME280;62428;51.412;5.432;2023-07-31T10:28:24;100602.19;;;16.93;100.00
74075;BME280;62428;51.412;5.432;2023-07-31T10:30:51;100598.78;;;16.96;100.00
74075;BME280;62428;51.412;5.432;2023-07-31T10:33:17;100605.13;;;17.00;100.00
74075;BME280;62428;51.412;5.432;2023-07-31T10:35:43;100606.03;;;17.04;100.00
74075;BME280;62428;51.412;5.432;2023-07-31T10:38:12;100608.06;;;17.07;100.00
74075;BME280;62428;51.412;5.432;2023-07-31T10:40:38;100612.78;;;17.10;100.00
74075;BME280;62428;51.412;5.432;2023-07-31T10:43:05;100603.53;;;17.11;100.00
74075;BME280;62428;51.412;5.432;2023-07-31T10:45:44;100606.81;;;17.17;100.00
74075;BME280;62428;51.412;5.432;2023-07-31T10:48:14;100608.13;;;17.23;100.00
74075;BME280;62428;51.412;5.432;2023-07-31T10:50:55;100612.66;;;17.31;100.00
74075;BME280;62428;51.412;5.432;2023-07-31T10:53:30;100618.75;;;17.40;100.00
74075;BME280;62428;51.412;5.432;2023-07-31T10:56:00;100596.47;;;17.47;100.00
74075;BME280;62428;51.412;5.432;2023-07-31T10:58:26;100598.91;;;17.52;100.00
74075;BME280;62428;51.412;5.432;2023-07-31T11:00:56;100607.63;;;17.58;100.00
74075;BME280;62428;51.412;5.432;2023-07-31T11:03:25;100604.22;;;17.61;100.00
74075;BME280;62428;51.412;5.432;2023-07-31T11:05:53;100600.81;;;17.64;100.00
74075;BME280;62428;51.412;5.432;2023-07-31T11:08:25;100598.53;;;17.66;100.00
74075;BME280;62428;51.412;5.432;2023-07-31T11:11:13;100600.13;;;17.67;100.00
74075;BME280;62428;51.412;5.432;2023-07-31T11:13:48;100600.13;;;17.67;100.00
74075;BME280;62428;51.412;5.432;2023-07-31T11:16:19;100606.69;;;17.66;100.00
74075;BME280;62428;51.412;5.432;2023-07-31T11:18:46;100597.41;;;17.67;100.00
74075;BME280;62428;51.412;5.432;2023-07-31T11:21:17;100597.41;;;17.67;100.00
74075;BME280;62428;51.412;5.432;2023-07-31T11:23:47;100588.44;;;17.66;100.00
74075;BME280;62428;51.412;5.432;2023-07-31T11:26:14;100594.69;;;17.67;100.00
74075;BME280;62428;51.412;5.432;2023-07-31T11:28:39;100592.88;;;17.71;100.00
74075;BME280;62428;51.412;5.432;2023-07-31T11:31:08;100590.69;;;17.77;100.00
74075;BME280;62428;51.412;5.432;2023-07-31T11:33:34;100589.19;;;17.79;100.00
74075;BME280;62428;51.412;5.432;2023-07-31T11:35:59;100586.03;;;17.77;100.00
74075;BME280;62428;51.412;5.432;2023-07-31T11:38:34;100592.19;;;17.74;100.00
74075;BME280;62428;51.412;5.432;2023-07-31T11:41:02;100590.16;;;17.71;100.00
74075;BME280;62428;51.412;5.432;2023-07-31T11:43:28;100589.25;;;17.67;100.00
74075;BME280;62428;51.412;5.432;2023-07-31T11:45:55;100586.78;;;17.62;100.00
74075;BME280;62428;51.412;5.432;2023-07-31T11:48:29;100586.69;;;17.58;100.00
74075;BME280;62428;51.412;5.432;2023-07-31T11:51:00;100576.84;;;17.54;100.00
74075;BME280;62428;51.412;5.432;2023-07-31T11:53:33;100577.19;;;17.52;100.00
74075;BME280;62428;51.412;5.432;2023-07-31T11:56:01;100580.59;;;17.49;100.00
74075;BME280;62428;51.412;5.432;2023-07-31T11:58:30;100576.28;;;17.48;100.00
74075;BME280;62428;51.412;5.432;2023-07-31T12:00:56;100578.66;;;17.49;100.00
74075;BME280;62428;51.412;5.432;2023-07-31T12:03:23;100572.91;;;17.51;100.00
74075;BME280;62428;51.412;5.432;2023-07-31T12:05:49;100566.31;;;17.52;100.00
74075;BME280;62428;51.412;5.432;2023-07-31T12:08:14;100566.78;;;17.54;100.00
74075;BME280;62428;51.412;5.432;2023-07-31T12:10:41;100571.06;;;17.55;100.00
74075;BME280;62428;51.412;5.432;2023-07-31T12:13:12;100567.66;;;17.58;100.00
74075;BME280;62428;51.412;5.432;2023-07-31T12:15:45;100565.06;;;17.62;100.00
74075;BME280;62428;51.412;5.432;2023-07-31T12:18:14;100561.28;;;17.66;100.00
74075;BME280;62428;51.412;5.432;2023-07-31T12:20:48;100567.63;;;17.71;100.00
74075;BME280;62428;51.412;5.432;2023-07-31T12:23:19;100563.75;;;17.72;100.00
74075;BME280;62428;51.412;5.432;2023-07-31T12:26:09;100548.25;;;17.72;100.00
74075;BME280;62428;51.412;5.432;2023-07-31T12:28:46;100538.63;;;17.75;100.00
74075;BME280;62428;51.412;5.432;2023-07-31T12:31:20;100538.28;;;17.76;100.00
74075;BME280;62428;51.412;5.432;2023-07-31T12:33:47;100532.13;;;17.79;100.00
74075;BME280;62428;51.412;5.432;2023-07-31T12:36:22;100520.13;;;17.80;100.00
74075;BME280;62428;51.412;5.432;2023-07-31T12:38:49;100528.72;;;17.82;100.00
74075;BME280;62428;51.412;5.432;2023-07-31T12:41:15;100538.94;;;17.85;100.00
74075;BME280;62428;51.412;5.432;2023-07-31T12:43:42;100535.06;;;17.86;100.00